sensor_id;sensor_type;location;lat;lon;timestamp;temperature;humidity
7234;DHT22;3658;47.992;10.158;2023-05-10T00:00:32;21.60;50.80
7234;DHT22;3658;47.992;10.158;2023-05-10T00:02:59;21.60;50.70
7234;DHT22;3658;47.992;10.158;2023-05-10T00:05:26;21.60;50.70
7234;DHT22;3658;47.992;10.158;2023-05-10T00:07:53;21.60;50.70
7234;DHT22;3658;47.992;10.158;2023-05-10T00:10:20;21.60;50.70
7234;DHT22;3658;47.992;10.158;2023-05-10T00:12:46;21.60;50.70
7234;DHT22;3658;47.992;10.158;2023-05-10T00:15:13;21.60;50.70
7234;DHT22;3658;47.992;10.158;2023-05-10T00:17:41;21.60;50.70
7234;DHT22;3658;47.992;10.158;2023-05-10T00:20:09;21.70;50.70
7234;DHT22;3658;47.992;10.158;2023-05-10T00:22:36;21.60;50.70
7234;DHT22;3658;47.992;10.158;2023-05-10T00:25:04;21.60;50.70
7234;DHT22;3658;47.992;10.158;2023-05-10T00:27:31;21.60;50.70
7234;DHT22;3658;47.992;10.158;2023-05-10T00:29:58;21.60;50.60
7234;DHT22;3658;47.992;10.158;2023-05-10T00:32:25;21.70;50.70
7234;DHT22;3658;47.992;10.158;2023-05-10T00:34:53;21.60;50.60
7234;DHT22;3658;47.992;10.158;2023-05-10T00:37:20;21.60;50.60
7234;DHT22;3658;47.992;10.158;2023-05-10T00:39:47;21.60;50.60
7234;DHT22;3658;47.992;10.158;2023-05-10T00:42:13;21.60;50.60
7234;DHT22;3658;47.992;10.158;2023-05-10T00:44:40;21.60;50.60
7234;DHT22;3658;47.992;10.158;2023-05-10T00:47:07;21.60;50.50
7234;DHT22;3658;47.992;10.158;2023-05-10T00:49:35;21.60;50.60
7234;DHT22;3658;47.992;10.158;2023-05-10T00:52:06;21.60;50.60
7234;DHT22;3658;47.992;10.158;2023-05-10T00:54:33;21.60;50.50
7234;DHT22;3658;47.992;10.158;2023-05-10T00:57:00;21.60;50.50
7234;DHT22;3658;47.992;10.158;2023-05-10T00:59:27;21.60;50.50
7234;DHT22;3658;47.992;10.158;2023-05-10T01:01:54;21.60;50.50
7234;DHT22;3658;47.992;10.158;2023-05-10T01:04:21;21.60;50.50
7234;DHT22;3658;47.992;10.158;2023-05-10T01:06:51;21.60;50.50
7234;DHT22;3658;47.992;10.158;2023-05-10T01:09:19;21.60;50.50
7234;DHT22;3658;47.992;10.158;2023-05-10T01:11:47;21.60;50.50
7234;DHT22;3658;47.992;10.158;2023-05-10T01:14:15;21.60;50.50
7234;DHT22;3658;47.992;10.158;2023-05-10T01:16:44;21.60;50.40
7234;DHT22;3658;47.992;10.158;2023-05-10T01:19:15;21.60;50.40
7234;DHT22;3658;47.992;10.158;2023-05-10T01:21:49;21.60;50.40
7234;DHT22;3658;47.992;10.158;2023-05-10T01:24:48;21.60;50.40
7234;DHT22;3658;47.992;10.158;2023-05-10T01:27:47;21.60;50.40
7234;DHT22;3658;47.992;10.158;2023-05-10T01:33:39;21.60;50.40
7234;DHT22;3658;47.992;10.158;2023-05-10T01:36:16;21.60;50.40
7234;DHT22;3658;47.992;10.158;2023-05-10T01:38:55;21.60;50.40
7234;DHT22;3658;47.992;10.158;2023-05-10T01:41:28;21.60;50.40
7234;DHT22;3658;47.992;10.158;2023-05-10T01:44:01;21.60;50.30
7234;DHT22;3658;47.992;10.158;2023-05-10T01:46:33;21.60;50.30
7234;DHT22;3658;47.992;10.158;2023-05-10T01:49:06;21.60;50.40
7234;DHT22;3658;47.992;10.158;2023-05-10T01:51:39;21.60;50.40
7234;DHT22;3658;47.992;10.158;2023-05-10T01:54:08;21.60;50.40
7234;DHT22;3658;47.992;10.158;2023-05-10T01:56:37;21.60;50.30
7234;DHT22;3658;47.992;10.158;2023-05-10T01:59:11;21.60;50.30
7234;DHT22;3658;47.992;10.158;2023-05-10T02:01:40;21.60;50.30
7234;DHT22;3658;47.992;10.158;2023-05-10T02:04:09;21.60;50.30
7234;DHT22;3658;47.992;10.158;2023-05-10T02:06:38;21.60;50.30
7234;DHT22;3658;47.992;10.158;2023-05-10T02:09:06;21.60;50.30
7234;DHT22;3658;47.992;10.158;2023-05-10T02:11:34;21.60;50.40
7234;DHT22;3658;47.992;10.158;2023-05-10T02:14:03;21.60;50.40
7234;DHT22;3658;47.992;10.158;2023-05-10T02:16:32;21.60;50.30
7234;DHT22;3658;47.992;10.158;2023-05-10T02:18:59;21.60;50.30
7234;DHT22;3658;47.992;10.158;2023-05-10T02:21:29;21.60;50.30
7234;DHT22;3658;47.992;10.158;2023-05-10T02:23:59;21.60;50.30
7234;DHT22;3658;47.992;10.158;2023-05-10T02:26:28;21.60;50.30
7234;DHT22;3658;47.992;10.158;2023-05-10T02:28:57;21.60;50.30
7234;DHT22;3658;47.992;10.158;2023-05-10T02:31:25;21.60;50.30
7234;DHT22;3658;47.992;10.158;2023-05-10T02:33:53;21.60;50.30
7234;DHT22;3658;47.992;10.158;2023-05-10T02:36:21;21.60;50.30
7234;DHT22;3658;47.992;10.158;2023-05-10T02:38:51;21.60;50.30
7234;DHT22;3658;47.992;10.158;2023-05-10T02:41:19;21.60;50.30
7234;DHT22;3658;47.992;10.158;2023-05-10T02:43:50;21.60;50.30
7234;DHT22;3658;47.992;10.158;2023-05-10T02:46:17;21.60;50.20
7234;DHT22;3658;47.992;10.158;2023-05-10T02:48:44;21.60;50.20
7234;DHT22;3658;47.992;10.158;2023-05-10T02:51:12;21.60;50.20
7234;DHT22;3658;47.992;10.158;2023-05-10T02:53:44;21.60;50.20
7234;DHT22;3658;47.992;10.158;2023-05-10T02:56:17;21.60;50.80
7234;DHT22;3658;47.992;10.158;2023-05-10T02:58:46;21.60;50.20
7234;DHT22;3658;47.992;10.158;2023-05-10T03:01:13;21.60;50.20
7234;DHT22;3658;47.992;10.158;2023-05-10T03:03:40;21.60;50.20
7234;DHT22;3658;47.992;10.158;2023-05-10T03:06:07;21.60;50.20
7234;DHT22;3658;47.992;10.158;2023-05-10T03:08:35;21.60;50.20
7234;DHT22;3658;47.992;10.158;2023-05-10T03:11:16;21.60;50.20
7234;DHT22;3658;47.992;10.158;2023-05-10T03:13:48;21.60;50.20
7234;DHT22;3658;47.992;10.158;2023-05-10T03:16:25;21.50;50.10
7234;DHT22;3658;47.992;10.158;2023-05-10T03:18:56;21.60;50.10
7234;DHT22;3658;47.992;10.158;2023-05-10T03:21:26;21.60;50.20
7234;DHT22;3658;47.992;10.158;2023-05-10T03:23:58;21.60;50.20
7234;DHT22;3658;47.992;10.158;2023-05-10T03:26:27;21.60;50.20
7234;DHT22;3658;47.992;10.158;2023-05-10T03:28:56;21.60;50.10
7234;DHT22;3658;47.992;10.158;2023-05-10T03:31:24;21.60;50.20
7234;DHT22;3658;47.992;10.158;2023-05-10T03:33:52;21.60;50.10
7234;DHT22;3658;47.992;10.158;2023-05-10T03:36:19;21.60;50.10
7234;DHT22;3658;47.992;10.158;2023-05-10T03:38:46;21.60;50.10
7234;DHT22;3658;47.992;10.158;2023-05-10T03:41:13;21.60;50.20
7234;DHT22;3658;47.992;10.158;2023-05-10T03:43:41;21.50;50.00
7234;DHT22;3658;47.992;10.158;2023-05-10T03:46:08;21.60;50.10
7234;DHT22;3658;47.992;10.158;2023-05-10T03:48:35;21.60;50.10
7234;DHT22;3658;47.992;10.158;2023-05-10T03:51:02;21.50;50.00
7234;DHT22;3658;47.992;10.158;2023-05-10T03:53:28;21.60;50.10
7234;DHT22;3658;47.992;10.158;2023-05-10T03:55:56;21.60;50.10
7234;DHT22;3658;47.992;10.158;2023-05-10T03:58:22;21.60;50.10
7234;DHT22;3658;47.992;10.158;2023-05-10T04:00:51;21.50;50.00
7234;DHT22;3658;47.992;10.158;2023-05-10T04:03:18;21.50;50.00
7234;DHT22;3658;47.992;10.158;2023-05-10T04:05:45;21.60;50.10
7234;DHT22;3658;47.992;10.158;2023-05-10T04:08:12;21.60;50.00
7234;DHT22;3658;47.992;10.158;2023-05-10T04:10:40;21.60;50.10
7234;DHT22;3658;47.992;10.158;2023-05-10T04:13:07;21.50;50.00
7234;DHT22;3658;47.992;10.158;2023-05-10T04:15:33;21.50;50.00
7234;DHT22;3658;47.992;10.158;2023-05-10T04:18:02;21.50;50.00
7234;DHT22;3658;47.992;10.158;2023-05-10T04:20:29;21.60;50.00
7234;DHT22;3658;47.992;10.158;2023-05-10T04:22:55;21.50;50.00
7234;DHT22;3658;47.992;10.158;2023-05-10T04:25:22;21.50;49.90
7234;DHT22;3658;47.992;10.158;2023-05-10T04:27:49;21.60;50.00
7234;DHT22;3658;47.992;10.158;2023-05-10T04:30:16;21.60;50.10
7234;DHT22;3658;47.992;10.158;2023-05-10T04:32:43;21.50;49.90
7234;DHT22;3658;47.992;10.158;2023-05-10T04:35:11;21.50;49.90
7234;DHT22;3658;47.992;10.158;2023-05-10T04:37:40;21.60;50.00
7234;DHT22;3658;47.992;10.158;2023-05-10T04:40:07;21.60;50.00
7234;DHT22;3658;47.992;10.158;2023-05-10T04:42:34;21.60;50.00
7234;DHT22;3658;47.992;10.158;2023-05-10T04:45:01;21.50;49.90
7234;DHT22;3658;47.992;10.158;2023-05-10T04:47:28;21.50;49.80
7234;DHT22;3658;47.992;10.158;2023-05-10T04:49:55;21.50;49.80
7234;DHT22;3658;47.992;10.158;2023-05-10T04:52:23;21.60;49.90
7234;DHT22;3658;47.992;10.158;2023-05-10T04:54:49;21.50;49.80
7234;DHT22;3658;47.992;10.158;2023-05-10T04:57:16;21.50;49.80
7234;DHT22;3658;47.992;10.158;2023-05-10T04:59:43;21.50;49.80
7234;DHT22;3658;47.992;10.158;2023-05-10T05:02:10;21.60;49.90
7234;DHT22;3658;47.992;10.158;2023-05-10T05:04:37;21.50;49.80
7234;DHT22;3658;47.992;10.158;2023-05-10T05:07:03;21.50;49.80
7234;DHT22;3658;47.992;10.158;2023-05-10T05:09:31;21.50;49.80
7234;DHT22;3658;47.992;10.158;2023-05-10T05:11:58;21.60;49.80
7234;DHT22;3658;47.992;10.158;2023-05-10T05:14:25;21.50;49.80
7234;DHT22;3658;47.992;10.158;2023-05-10T05:16:52;21.50;49.80
7234;DHT22;3658;47.992;10.158;2023-05-10T05:19:19;21.60;49.90
7234;DHT22;3658;47.992;10.158;2023-05-10T05:21:46;21.60;49.90
7234;DHT22;3658;47.992;10.158;2023-05-10T05:24:13;21.60;50.40
7234;DHT22;3658;47.992;10.158;2023-05-10T05:26:41;21.60;50.40
7234;DHT22;3658;47.992;10.158;2023-05-10T05:29:09;21.60;50.60
7234;DHT22;3658;47.992;10.158;2023-05-10T05:31:36;21.70;50.80
7234;DHT22;3658;47.992;10.158;2023-05-10T05:34:02;21.70;50.90
7234;DHT22;3658;47.992;10.158;2023-05-10T05:36:29;21.70;50.90
7234;DHT22;3658;47.992;10.158;2023-05-10T05:38:57;21.70;50.80
7234;DHT22;3658;47.992;10.158;2023-05-10T05:41:25;21.80;51.00
7234;DHT22;3658;47.992;10.158;2023-05-10T05:43:54;21.80;51.00
7234;DHT22;3658;47.992;10.158;2023-05-10T05:46:20;21.70;51.00
7234;DHT22;3658;47.992;10.158;2023-05-10T05:48:47;21.80;51.20
7234;DHT22;3658;47.992;10.158;2023-05-10T05:51:15;21.80;51.30
7234;DHT22;3658;47.992;10.158;2023-05-10T05:53:42;21.80;51.50
7234;DHT22;3658;47.992;10.158;2023-05-10T05:56:09;21.80;51.60
7234;DHT22;3658;47.992;10.158;2023-05-10T05:58:36;21.80;51.70
7234;DHT22;3658;47.992;10.158;2023-05-10T06:01:04;21.80;51.70
7234;DHT22;3658;47.992;10.158;2023-05-10T06:03:31;21.80;51.70
7234;DHT22;3658;47.992;10.158;2023-05-10T06:05:58;21.80;51.80
7234;DHT22;3658;47.992;10.158;2023-05-10T06:08:24;21.80;51.80
7234;DHT22;3658;47.992;10.158;2023-05-10T06:10:51;21.90;51.90
7234;DHT22;3658;47.992;10.158;2023-05-10T06:13:18;21.80;51.80
7234;DHT22;3658;47.992;10.158;2023-05-10T06:15:45;21.80;51.80
7234;DHT22;3658;47.992;10.158;2023-05-10T06:18:13;21.90;52.00
7234;DHT22;3658;47.992;10.158;2023-05-10T06:20:41;21.90;51.90
7234;DHT22;3658;47.992;10.158;2023-05-10T06:23:08;21.90;51.90
7234;DHT22;3658;47.992;10.158;2023-05-10T06:25:35;21.90;51.80
7234;DHT22;3658;47.992;10.158;2023-05-10T06:28:02;21.90;51.80
7234;DHT22;3658;47.992;10.158;2023-05-10T06:30:29;21.90;51.70
7234;DHT22;3658;47.992;10.158;2023-05-10T06:32:56;21.90;51.70
7234;DHT22;3658;47.992;10.158;2023-05-10T06:35:24;21.90;52.30
7234;DHT22;3658;47.992;10.158;2023-05-10T06:37:51;21.90;51.60
7234;DHT22;3658;47.992;10.158;2023-05-10T06:40:18;21.90;51.60
7234;DHT22;3658;47.992;10.158;2023-05-10T06:42:47;21.90;51.80
7234;DHT22;3658;47.992;10.158;2023-05-10T06:45:15;21.90;52.00
7234;DHT22;3658;47.992;10.158;2023-05-10T06:47:42;22.00;52.30
7234;DHT22;3658;47.992;10.158;2023-05-10T06:50:10;22.10;52.40
7234;DHT22;3658;47.992;10.158;2023-05-10T06:52:39;22.10;52.30
7234;DHT22;3658;47.992;10.158;2023-05-10T06:55:06;22.10;52.40
7234;DHT22;3658;47.992;10.158;2023-05-10T06:57:34;22.00;52.30
7234;DHT22;3658;47.992;10.158;2023-05-10T07:00:01;22.10;52.30
7234;DHT22;3658;47.992;10.158;2023-05-10T07:02:30;22.10;52.30
7234;DHT22;3658;47.992;10.158;2023-05-10T07:04:56;22.10;52.10
7234;DHT22;3658;47.992;10.158;2023-05-10T07:07:23;22.10;52.00
7234;DHT22;3658;47.992;10.158;2023-05-10T07:09:51;22.10;51.80
7234;DHT22;3658;47.992;10.158;2023-05-10T07:12:18;22.10;51.50
7234;DHT22;3658;47.992;10.158;2023-05-10T07:14:45;22.10;51.40
7234;DHT22;3658;47.992;10.158;2023-05-10T07:17:12;22.10;51.20
7234;DHT22;3658;47.992;10.158;2023-05-10T07:19:38;22.10;51.20
7234;DHT22;3658;47.992;10.158;2023-05-10T07:22:05;22.10;51.30
7234;DHT22;3658;47.992;10.158;2023-05-10T07:24:32;22.00;52.00
7234;DHT22;3658;47.992;10.158;2023-05-10T07:27:00;22.00;51.60
7234;DHT22;3658;47.992;10.158;2023-05-10T07:29:27;22.10;51.40
7234;DHT22;3658;47.992;10.158;2023-05-10T07:31:54;22.10;51.10
7234;DHT22;3658;47.992;10.158;2023-05-10T07:34:21;22.10;50.90
7234;DHT22;3658;47.992;10.158;2023-05-10T07:36:48;22.10;50.90
7234;DHT22;3658;47.992;10.158;2023-05-10T07:39:15;22.10;50.80
7234;DHT22;3658;47.992;10.158;2023-05-10T07:41:42;22.10;50.80
7234;DHT22;3658;47.992;10.158;2023-05-10T07:44:10;22.00;50.70
7234;DHT22;3658;47.992;10.158;2023-05-10T07:46:37;22.00;50.70
7234;DHT22;3658;47.992;10.158;2023-05-10T07:49:04;22.10;51.00
7234;DHT22;3658;47.992;10.158;2023-05-10T07:51:30;22.00;50.90
7234;DHT22;3658;47.992;10.158;2023-05-10T07:53:57;22.00;50.70
7234;DHT22;3658;47.992;10.158;2023-05-10T07:56:25;22.00;50.50
7234;DHT22;3658;47.992;10.158;2023-05-10T07:58:55;22.00;51.30
7234;DHT22;3658;47.992;10.158;2023-05-10T08:01:23;22.00;50.50
7234;DHT22;3658;47.992;10.158;2023-05-10T08:03:50;22.00;50.50
7234;DHT22;3658;47.992;10.158;2023-05-10T08:06:20;21.90;50.60
7234;DHT22;3658;47.992;10.158;2023-05-10T08:08:48;22.00;50.90
7234;DHT22;3658;47.992;10.158;2023-05-10T08:11:16;22.00;51.10
7234;DHT22;3658;47.992;10.158;2023-05-10T08:13:42;22.00;51.20
7234;DHT22;3658;47.992;10.158;2023-05-10T08:16:09;22.00;51.20
7234;DHT22;3658;47.992;10.158;2023-05-10T08:18:38;22.00;51.60
7234;DHT22;3658;47.992;10.158;2023-05-10T08:21:05;22.00;51.70
7234;DHT22;3658;47.992;10.158;2023-05-10T08:23:33;22.00;51.80
7234;DHT22;3658;47.992;10.158;2023-05-10T08:26:00;22.00;52.00
7234;DHT22;3658;47.992;10.158;2023-05-10T08:28:27;22.00;51.80
7234;DHT22;3658;47.992;10.158;2023-05-10T08:30:53;22.00;51.60
7234;DHT22;3658;47.992;10.158;2023-05-10T08:33:20;22.00;51.50
7234;DHT22;3658;47.992;10.158;2023-05-10T08:35:48;22.00;51.40
7234;DHT22;3658;47.992;10.158;2023-05-10T08:38:15;22.10;51.40
7234;DHT22;3658;47.992;10.158;2023-05-10T08:40:43;22.10;51.40
7234;DHT22;3658;47.992;10.158;2023-05-10T08:43:13;22.10;51.50
7234;DHT22;3658;47.992;10.158;2023-05-10T08:45:42;22.10;51.50
7234;DHT22;3658;47.992;10.158;2023-05-10T08:48:11;22.10;51.40
7234;DHT22;3658;47.992;10.158;2023-05-10T08:50:39;22.10;51.40
7234;DHT22;3658;47.992;10.158;2023-05-10T08:53:10;22.10;51.40
7234;DHT22;3658;47.992;10.158;2023-05-10T08:55:37;22.10;51.40
7234;DHT22;3658;47.992;10.158;2023-05-10T08:58:05;22.10;51.30
7234;DHT22;3658;47.992;10.158;2023-05-10T09:00:33;22.10;51.30
7234;DHT22;3658;47.992;10.158;2023-05-10T09:03:01;22.10;51.70
7234;DHT22;3658;47.992;10.158;2023-05-10T09:05:28;22.10;51.70
7234;DHT22;3658;47.992;10.158;2023-05-10T09:07:55;22.10;51.70
7234;DHT22;3658;47.992;10.158;2023-05-10T09:10:23;22.10;51.60
7234;DHT22;3658;47.992;10.158;2023-05-10T09:12:53;22.10;51.90
7234;DHT22;3658;47.992;10.158;2023-05-10T09:15:22;22.10;51.90
7234;DHT22;3658;47.992;10.158;2023-05-10T09:17:49;22.10;51.70
7234;DHT22;3658;47.992;10.158;2023-05-10T09:20:16;22.10;51.60
7234;DHT22;3658;47.992;10.158;2023-05-10T09:22:44;22.10;51.90
7234;DHT22;3658;47.992;10.158;2023-05-10T09:25:12;22.10;51.90
7234;DHT22;3658;47.992;10.158;2023-05-10T09:27:41;22.10;52.00
7234;DHT22;3658;47.992;10.158;2023-05-10T09:30:09;22.10;52.00
7234;DHT22;3658;47.992;10.158;2023-05-10T09:32:37;22.10;51.90
7234;DHT22;3658;47.992;10.158;2023-05-10T09:35:11;22.10;51.60
7234;DHT22;3658;47.992;10.158;2023-05-10T09:37:39;22.10;51.60
7234;DHT22;3658;47.992;10.158;2023-05-10T09:40:11;22.10;51.50
7234;DHT22;3658;47.992;10.158;2023-05-10T09:42:39;22.10;51.50
7234;DHT22;3658;47.992;10.158;2023-05-10T09:45:07;22.10;51.50
7234;DHT22;3658;47.992;10.158;2023-05-10T09:47:35;22.10;51.50
7234;DHT22;3658;47.992;10.158;2023-05-10T09:50:03;22.10;51.60
7234;DHT22;3658;47.992;10.158;2023-05-10T09:52:30;22.10;52.30
7234;DHT22;3658;47.992;10.158;2023-05-10T09:54:57;22.10;51.70
7234;DHT22;3658;47.992;10.158;2023-05-10T09:57:24;22.10;51.80
7234;DHT22;3658;47.992;10.158;2023-05-10T09:59:53;22.10;51.80
7234;DHT22;3658;47.992;10.158;2023-05-10T10:02:21;22.10;51.90
7234;DHT22;3658;47.992;10.158;2023-05-10T10:04:49;22.10;52.00
7234;DHT22;3658;47.992;10.158;2023-05-10T10:07:22;22.10;51.80
7234;DHT22;3658;47.992;10.158;2023-05-10T10:09:50;22.10;51.80
7234;DHT22;3658;47.992;10.158;2023-05-10T10:12:17;22.10;51.90
7234;DHT22;3658;47.992;10.158;2023-05-10T10:14:46;22.10;52.00
7234;DHT22;3658;47.992;10.158;2023-05-10T10:17:14;22.10;51.90
7234;DHT22;3658;47.992;10.158;2023-05-10T10:19:41;22.10;51.80
7234;DHT22;3658;47.992;10.158;2023-05-10T10:22:08;22.10;51.70
7234;DHT22;3658;47.992;10.158;2023-05-10T10:24:37;22.10;51.60
7234;DHT22;3658;47.992;10.158;2023-05-10T10:27:16;22.20;51.60
7234;DHT22;3658;47.992;10.158;2023-05-10T10:29:55;22.10;51.50
7234;DHT22;3658;47.992;10.158;2023-05-10T10:32:33;22.20;51.50
7234;DHT22;3658;47.992;10.158;2023-05-10T10:35:04;22.20;51.50
7234;DHT22;3658;47.992;10.158;2023-05-10T10:37:46;22.10;51.50
7234;DHT22;3658;47.992;10.158;2023-05-10T10:40:23;22.20;51.60
7234;DHT22;3658;47.992;10.158;2023-05-10T10:42:51;22.20;51.50
7234;DHT22;3658;47.992;10.158;2023-05-10T10:45:19;22.10;51.40
7234;DHT22;3658;47.992;10.158;2023-05-10T10:47:48;22.20;51.50
7234;DHT22;3658;47.992;10.158;2023-05-10T10:50:15;22.10;51.30
7234;DHT22;3658;47.992;10.158;2023-05-10T10:52:43;22.20;51.40
7234;DHT22;3658;47.992;10.158;2023-05-10T10:55:11;22.10;51.30
7234;DHT22;3658;47.992;10.158;2023-05-10T10:57:50;22.20;51.40
7234;DHT22;3658;47.992;10.158;2023-05-10T11:00:27;22.20;51.40
7234;DHT22;3658;47.992;10.158;2023-05-10T11:02:59;22.20;51.30
7234;DHT22;3658;47.992;10.158;2023-05-10T11:05:37;22.20;51.40
7234;DHT22;3658;47.992;10.158;2023-05-10T11:08:25;22.20;51.30
7234;DHT22;3658;47.992;10.158;2023-05-10T11:11:02;22.20;52.00
7234;DHT22;3658;47.992;10.158;2023-05-10T11:13:31;22.20;51.40
7234;DHT22;3658;47.992;10.158;2023-05-10T11:16:10;22.20;51.40
7234;DHT22;3658;47.992;10.158;2023-05-10T11:18:38;22.20;51.40
7234;DHT22;3658;47.992;10.158;2023-05-10T11:21:08;22.20;51.40
7234;DHT22;3658;47.992;10.158;2023-05-10T11:23:48;22.20;51.60
7234;DHT22;3658;47.992;10.158;2023-05-10T11:26:16;22.20;51.80
7234;DHT22;3658;47.992;10.158;2023-05-10T11:28:43;22.30;51.90
7234;DHT22;3658;47.992;10.158;2023-05-10T11:31:11;22.30;52.00
7234;DHT22;3658;47.992;10.158;2023-05-10T11:33:44;22.30;52.00
7234;DHT22;3658;47.992;10.158;2023-05-10T11:36:11;22.30;52.00
7234;DHT22;3658;47.992;10.158;2023-05-10T11:38:38;22.30;52.00
7234;DHT22;3658;47.992;10.158;2023-05-10T11:41:05;22.30;52.00
7234;DHT22;3658;47.992;10.158;2023-05-10T11:43:32;22.30;52.00
7234;DHT22;3658;47.992;10.158;2023-05-10T11:45:59;22.30;52.10
7234;DHT22;3658;47.992;10.158;2023-05-10T11:48:26;22.30;52.00
7234;DHT22;3658;47.992;10.158;2023-05-10T11:50:54;22.30;52.10
7234;DHT22;3658;47.992;10.158;2023-05-10T11:53:22;22.30;52.00
7234;DHT22;3658;47.992;10.158;2023-05-10T11:55:49;22.30;52.00
7234;DHT22;3658;47.992;10.158;2023-05-10T11:58:19;22.30;52.20
7234;DHT22;3658;47.992;10.158;2023-05-10T12:00:47;22.30;52.30
7234;DHT22;3658;47.992;10.158;2023-05-10T12:03:14;22.30;52.30
7234;DHT22;3658;47.992;10.158;2023-05-10T12:05:41;22.40;52.20
7234;DHT22;3658;47.992;10.158;2023-05-10T12:08:12;22.30;52.20
7234;DHT22;3658;47.992;10.158;2023-05-10T12:10:39;22.30;52.20
7234;DHT22;3658;47.992;10.158;2023-05-10T12:13:11;22.30;52.00
7234;DHT22;3658;47.992;10.158;2023-05-10T12:15:38;22.30;51.90
7234;DHT22;3658;47.992;10.158;2023-05-10T12:18:05;22.30;51.80
7234;DHT22;3658;47.992;10.158;2023-05-10T12:20:32;22.20;51.70
7234;DHT22;3658;47.992;10.158;2023-05-10T12:22:58;22.20;51.80
7234;DHT22;3658;47.992;10.158;2023-05-10T12:25:31;22.20;52.00
7234;DHT22;3658;47.992;10.158;2023-05-10T12:28:00;22.20;51.90
7234;DHT22;3658;47.992;10.158;2023-05-10T12:30:29;22.20;51.80
7234;DHT22;3658;47.992;10.158;2023-05-10T12:33:00;22.30;51.90
7234;DHT22;3658;47.992;10.158;2023-05-10T12:35:30;22.30;51.90
7234;DHT22;3658;47.992;10.158;2023-05-10T12:37:57;22.20;51.80
7234;DHT22;3658;47.992;10.158;2023-05-10T12:40:24;22.20;51.90
7234;DHT22;3658;47.992;10.158;2023-05-10T12:42:52;22.30;52.00
7234;DHT22;3658;47.992;10.158;2023-05-10T12:45:19;22.30;52.00
7234;DHT22;3658;47.992;10.158;2023-05-10T12:47:46;22.30;51.80
7234;DHT22;3658;47.992;10.158;2023-05-10T12:50:13;22.20;51.70
7234;DHT22;3658;47.992;10.158;2023-05-10T12:52:40;22.30;51.80
7234;DHT22;3658;47.992;10.158;2023-05-10T12:55:07;22.20;51.70
7234;DHT22;3658;47.992;10.158;2023-05-10T12:57:34;22.20;51.70
7234;DHT22;3658;47.992;10.158;2023-05-10T13:00:02;22.20;51.90
7234;DHT22;3658;47.992;10.158;2023-05-10T13:02:30;22.30;52.00
7234;DHT22;3658;47.992;10.158;2023-05-10T13:04:57;22.30;52.00
7234;DHT22;3658;47.992;10.158;2023-05-10T13:07:24;22.20;51.90
7234;DHT22;3658;47.992;10.158;2023-05-10T13:09:50;22.30;52.00
7234;DHT22;3658;47.992;10.158;2023-05-10T13:12:17;22.30;52.00
7234;DHT22;3658;47.992;10.158;2023-05-10T13:14:44;22.20;52.00
7234;DHT22;3658;47.992;10.158;2023-05-10T13:17:12;22.30;52.20
7234;DHT22;3658;47.992;10.158;2023-05-10T13:19:39;22.30;52.40
7234;DHT22;3658;47.992;10.158;2023-05-10T13:22:05;22.20;52.20
7234;DHT22;3658;47.992;10.158;2023-05-10T13:24:32;22.30;52.30
7234;DHT22;3658;47.992;10.158;2023-05-10T13:26:59;22.30;52.50
7234;DHT22;3658;47.992;10.158;2023-05-10T13:29:26;22.30;52.80
7234;DHT22;3658;47.992;10.158;2023-05-10T13:31:52;22.30;52.70
7234;DHT22;3658;47.992;10.158;2023-05-10T13:34:21;22.30;52.50
7234;DHT22;3658;47.992;10.158;2023-05-10T13:36:48;22.30;52.20
7234;DHT22;3658;47.992;10.158;2023-05-10T13:39:15;22.30;52.00
7234;DHT22;3658;47.992;10.158;2023-05-10T13:41:41;22.30;52.00
7234;DHT22;3658;47.992;10.158;2023-05-10T13:44:08;22.30;51.90
7234;DHT22;3658;47.992;10.158;2023-05-10T13:46:36;22.40;51.90
7234;DHT22;3658;47.992;10.158;2023-05-10T13:49:03;22.40;51.80
7234;DHT22;3658;47.992;10.158;2023-05-10T13:51:32;22.40;51.80
7234;DHT22;3658;47.992;10.158;2023-05-10T13:53:59;22.40;51.60
7234;DHT22;3658;47.992;10.158;2023-05-10T13:56:26;22.40;51.50
7234;DHT22;3658;47.992;10.158;2023-05-10T13:58:53;22.40;51.50
7234;DHT22;3658;47.992;10.158;2023-05-10T14:01:20;22.40;51.50
7234;DHT22;3658;47.992;10.158;2023-05-10T14:03:47;22.40;51.50
7234;DHT22;3658;47.992;10.158;2023-05-10T14:06:14;22.40;52.30
7234;DHT22;3658;47.992;10.158;2023-05-10T14:08:42;22.40;51.70
7234;DHT22;3658;47.992;10.158;2023-05-10T14:11:08;22.40;51.70
7234;DHT22;3658;47.992;10.158;2023-05-10T14:13:35;22.40;51.70
7234;DHT22;3658;47.992;10.158;2023-05-10T14:16:02;22.40;51.60
7234;DHT22;3658;47.992;10.158;2023-05-10T14:18:29;22.40;51.70
7234;DHT22;3658;47.992;10.158;2023-05-10T14:20:56;22.40;51.70
7234;DHT22;3658;47.992;10.158;2023-05-10T14:23:23;22.40;51.70
7234;DHT22;3658;47.992;10.158;2023-05-10T14:25:52;22.40;51.70
7234;DHT22;3658;47.992;10.158;2023-05-10T14:28:19;22.40;51.80
7234;DHT22;3658;47.992;10.158;2023-05-10T14:30:46;22.40;51.80
7234;DHT22;3658;47.992;10.158;2023-05-10T14:33:13;22.40;51.80
7234;DHT22;3658;47.992;10.158;2023-05-10T14:35:40;22.40;51.90
7234;DHT22;3658;47.992;10.158;2023-05-10T14:38:07;22.40;51.80
7234;DHT22;3658;47.992;10.158;2023-05-10T14:40:34;22.30;51.60
7234;DHT22;3658;47.992;10.158;2023-05-10T14:43:02;22.40;51.80
7234;DHT22;3658;47.992;10.158;2023-05-10T14:45:29;22.30;51.80
7234;DHT22;3658;47.992;10.158;2023-05-10T14:47:56;22.40;51.80
7234;DHT22;3658;47.992;10.158;2023-05-10T14:50:23;22.30;51.60
7234;DHT22;3658;47.992;10.158;2023-05-10T14:52:50;22.30;51.20
7234;DHT22;3658;47.992;10.158;2023-05-10T14:55:17;22.30;50.80
7234;DHT22;3658;47.992;10.158;2023-05-10T14:57:44;22.30;50.30
7234;DHT22;3658;47.992;10.158;2023-05-10T15:00:15;22.30;50.10
7234;DHT22;3658;47.992;10.158;2023-05-10T15:02:42;22.20;49.60
7234;DHT22;3658;47.992;10.158;2023-05-10T15:05:08;22.20;49.20
7234;DHT22;3658;47.992;10.158;2023-05-10T15:07:35;22.20;49.10
7234;DHT22;3658;47.992;10.158;2023-05-10T15:10:03;22.20;48.90
7234;DHT22;3658;47.992;10.158;2023-05-10T15:12:29;22.20;48.90
7234;DHT22;3658;47.992;10.158;2023-05-10T15:14:56;22.20;48.60
7234;DHT22;3658;47.992;10.158;2023-05-10T15:17:24;22.20;48.50
7234;DHT22;3658;47.992;10.158;2023-05-10T15:19:51;22.20;48.30
7234;DHT22;3658;47.992;10.158;2023-05-10T15:22:18;22.20;48.20
7234;DHT22;3658;47.992;10.158;2023-05-10T15:24:44;22.20;48.00
7234;DHT22;3658;47.992;10.158;2023-05-10T15:27:11;22.20;48.10
7234;DHT22;3658;47.992;10.158;2023-05-10T15:29:38;22.20;48.30
7234;DHT22;3658;47.992;10.158;2023-05-10T15:32:05;22.20;48.30
7234;DHT22;3658;47.992;10.158;2023-05-10T15:34:33;22.20;48.40
7234;DHT22;3658;47.992;10.158;2023-05-10T15:37:00;22.20;48.40
7234;DHT22;3658;47.992;10.158;2023-05-10T15:39:26;22.20;48.50
7234;DHT22;3658;47.992;10.158;2023-05-10T15:41:53;22.20;48.60
7234;DHT22;3658;47.992;10.158;2023-05-10T15:44:20;22.20;48.60
7234;DHT22;3658;47.992;10.158;2023-05-10T15:46:47;22.20;48.70
7234;DHT22;3658;47.992;10.158;2023-05-10T15:49:14;22.30;48.80
7234;DHT22;3658;47.992;10.158;2023-05-10T15:51:42;22.20;48.80
7234;DHT22;3658;47.992;10.158;2023-05-10T15:54:09;22.20;48.90